sensor_id;sensor_type;location;lat;lon;timestamp;temperature;humidity
20422;DHT22;10370;53.102;18.034;2023-03-03T00:02:02;-1.00;99.90
20422;DHT22;10370;53.102;18.034;2023-03-03T00:07:30;-1.00;99.90
20422;DHT22;10370;53.102;18.034;2023-03-03T00:12:53;-0.90;99.90
20422;DHT22;10370;53.102;18.034;2023-03-03T00:18:25;-1.00;99.90
20422;DHT22;10370;53.102;18.034;2023-03-03T00:23:52;-1.00;99.90
20422;DHT22;10370;53.102;18.034;2023-03-03T00:29:40;-1.10;99.90
20422;DHT22;10370;53.102;18.034;2023-03-03T00:35:29;-1.00;99.90
20422;DHT22;10370;53.102;18.034;2023-03-03T00:40:59;-1.00;99.90
20422;DHT22;10370;53.102;18.034;2023-03-03T00:46:24;-0.90;99.90
20422;DHT22;10370;53.102;18.034;2023-03-03T00:51:47;-0.90;99.90
20422;DHT22;10370;53.102;18.034;2023-03-03T00:57:14;-0.90;99.90
20422;DHT22;10370;53.102;18.034;2023-03-03T01:02:39;-0.90;99.90
20422;DHT22;10370;53.102;18.034;2023-03-03T01:08:03;-0.90;99.90
20422;DHT22;10370;53.102;18.034;2023-03-03T01:13:29;-1.00;99.90
20422;DHT22;10370;53.102;18.034;2023-03-03T01:18:56;-1.00;99.90
20422;DHT22;10370;53.102;18.034;2023-03-03T01:24:21;-1.00;99.90
20422;DHT22;10370;53.102;18.034;2023-03-03T01:29:46;-0.90;99.90
20422;DHT22;10370;53.102;18.034;2023-03-03T01:35:11;-0.90;99.90
20422;DHT22;10370;53.102;18.034;2023-03-03T01:40:36;-1.10;99.90
20422;DHT22;10370;53.102;18.034;2023-03-03T01:57:32;-1.10;99.90
20422;DHT22;10370;53.102;18.034;2023-03-03T02:02:58;-1.20;99.90
20422;DHT22;10370;53.102;18.034;2023-03-03T02:08:24;-1.20;99.90
20422;DHT22;10370;53.102;18.034;2023-03-03T02:13:48;-1.20;99.90
20422;DHT22;10370;53.102;18.034;2023-03-03T02:19:37;-1.20;99.90
20422;DHT22;10370;53.102;18.034;2023-03-03T02:25:04;-1.20;99.90
20422;DHT22;10370;53.102;18.034;2023-03-03T02:30:37;-1.20;99.90
20422;DHT22;10370;53.102;18.034;2023-03-03T02:36:24;-1.20;99.90
20422;DHT22;10370;53.102;18.034;2023-03-03T02:47:40;-1.20;99.90
20422;DHT22;10370;53.102;18.034;2023-03-03T02:53:05;-1.20;99.90
20422;DHT22;10370;53.102;18.034;2023-03-03T02:58:31;-1.20;99.90
20422;DHT22;10370;53.102;18.034;2023-03-03T03:03:55;-1.40;99.90
20422;DHT22;10370;53.102;18.034;2023-03-03T03:09:22;-1.30;99.90
20422;DHT22;10370;53.102;18.034;2023-03-03T03:14:48;-1.40;99.90
20422;DHT22;10370;53.102;18.034;2023-03-03T03:20:14;-1.30;99.90
20422;DHT22;10370;53.102;18.034;2023-03-03T03:25:39;-1.30;99.90
20422;DHT22;10370;53.102;18.034;2023-03-03T03:31:09;-1.30;99.90
20422;DHT22;10370;53.102;18.034;2023-03-03T03:36:35;-1.30;99.90
20422;DHT22;10370;53.102;18.034;2023-03-03T03:42:01;-1.30;99.90
20422;DHT22;10370;53.102;18.034;2023-03-03T03:47:28;-1.30;99.90
20422;DHT22;10370;53.102;18.034;2023-03-03T03:52:54;-1.30;99.90
20422;DHT22;10370;53.102;18.034;2023-03-03T03:58:19;-1.20;99.90
20422;DHT22;10370;53.102;18.034;2023-03-03T04:03:44;-1.20;99.90
20422;DHT22;10370;53.102;18.034;2023-03-03T04:09:09;-1.20;99.90
20422;DHT22;10370;53.102;18.034;2023-03-03T04:14:31;-1.20;99.90
20422;DHT22;10370;53.102;18.034;2023-03-03T04:19:55;-1.30;99.90
20422;DHT22;10370;53.102;18.034;2023-03-03T04:25:20;-1.30;99.90
20422;DHT22;10370;53.102;18.034;2023-03-03T04:30:45;-1.40;99.90
20422;DHT22;10370;53.102;18.034;2023-03-03T04:36:10;-1.40;99.90
20422;DHT22;10370;53.102;18.034;2023-03-03T04:41:37;-1.40;99.90
20422;DHT22;10370;53.102;18.034;2023-03-03T04:47:02;-1.40;99.90
20422;DHT22;10370;53.102;18.034;2023-03-03T04:52:27;-1.40;99.90
20422;DHT22;10370;53.102;18.034;2023-03-03T04:57:52;-1.40;99.90
20422;DHT22;10370;53.102;18.034;2023-03-03T05:03:17;-1.30;99.90
20422;DHT22;10370;53.102;18.034;2023-03-03T05:08:45;-1.30;99.90
20422;DHT22;10370;53.102;18.034;2023-03-03T05:14:10;-1.30;99.90
20422;DHT22;10370;53.102;18.034;2023-03-03T05:19:36;-1.40;99.90
20422;DHT22;10370;53.102;18.034;2023-03-03T05:25:07;-1.30;99.90
20422;DHT22;10370;53.102;18.034;2023-03-03T05:30:36;-1.40;99.90
20422;DHT22;10370;53.102;18.034;2023-03-03T05:35:59;-1.30;99.90
20422;DHT22;10370;53.102;18.034;2023-03-03T05:41:24;-1.30;99.90
20422;DHT22;10370;53.102;18.034;2023-03-03T05:46:47;-1.30;99.90
20422;DHT22;10370;53.102;18.034;2023-03-03T05:52:14;-1.30;99.90
20422;DHT22;10370;53.102;18.034;2023-03-03T05:57:39;-1.20;99.90
20422;DHT22;10370;53.102;18.034;2023-03-03T06:03:05;-1.20;99.90
20422;DHT22;10370;53.102;18.034;2023-03-03T06:08:28;-1.20;99.90
20422;DHT22;10370;53.102;18.034;2023-03-03T06:13:52;-1.10;99.90
20422;DHT22;10370;53.102;18.034;2023-03-03T06:19:18;-1.10;99.90
20422;DHT22;10370;53.102;18.034;2023-03-03T06:24:45;-1.00;99.90
20422;DHT22;10370;53.102;18.034;2023-03-03T06:30:09;-1.00;99.90
20422;DHT22;10370;53.102;18.034;2023-03-03T06:35:33;-0.90;99.90
20422;DHT22;10370;53.102;18.034;2023-03-03T06:40:58;-0.90;99.90
20422;DHT22;10370;53.102;18.034;2023-03-03T06:46:22;-0.90;99.90
20422;DHT22;10370;53.102;18.034;2023-03-03T06:51:43;-0.90;99.90
20422;DHT22;10370;53.102;18.034;2023-03-03T06:57:35;-0.80;99.90
20422;DHT22;10370;53.102;18.034;2023-03-03T07:03:06;-0.80;99.90
20422;DHT22;10370;53.102;18.034;2023-03-03T07:08:38;-0.80;99.90
20422;DHT22;10370;53.102;18.034;2023-03-03T07:14:04;-0.80;99.90
20422;DHT22;10370;53.102;18.034;2023-03-03T07:19:33;-0.80;99.90
20422;DHT22;10370;53.102;18.034;2023-03-03T07:24:59;-0.80;99.90
20422;DHT22;10370;53.102;18.034;2023-03-03T07:30:26;-0.80;99.90
20422;DHT22;10370;53.102;18.034;2023-03-03T07:35:50;-0.80;99.90
20422;DHT22;10370;53.102;18.034;2023-03-03T07:41:17;-0.70;99.90
20422;DHT22;10370;53.102;18.034;2023-03-03T07:46:45;-0.70;99.90
20422;DHT22;10370;53.102;18.034;2023-03-03T08:03:38;-0.60;99.90
20422;DHT22;10370;53.102;18.034;2023-03-03T08:14:37;-0.50;99.90
20422;DHT22;10370;53.102;18.034;2023-03-03T08:20:00;-0.50;99.90
20422;DHT22;10370;53.102;18.034;2023-03-03T08:25:28;-0.50;99.90
20422;DHT22;10370;53.102;18.034;2023-03-03T08:30:52;-0.50;99.90
20422;DHT22;10370;53.102;18.034;2023-03-03T08:36:30;-0.40;99.90
20422;DHT22;10370;53.102;18.034;2023-03-03T08:41:54;-0.40;99.90
20422;DHT22;10370;53.102;18.034;2023-03-03T08:47:18;-0.30;99.90
20422;DHT22;10370;53.102;18.034;2023-03-03T08:52:42;-0.30;99.90
20422;DHT22;10370;53.102;18.034;2023-03-03T08:58:03;-0.20;99.90
20422;DHT22;10370;53.102;18.034;2023-03-03T09:03:25;-0.10;99.90
20422;DHT22;10370;53.102;18.034;2023-03-03T09:08:47;-0.10;99.90
20422;DHT22;10370;53.102;18.034;2023-03-03T09:14:15;-0.10;99.90
20422;DHT22;10370;53.102;18.034;2023-03-03T09:19:39;-0.10;99.90
20422;DHT22;10370;53.102;18.034;2023-03-03T09:25:17;-0.10;99.90
20422;DHT22;10370;53.102;18.034;2023-03-03T09:30:48;0.00;99.90
20422;DHT22;10370;53.102;18.034;2023-03-03T09:36:25;0.10;99.90
20422;DHT22;10370;53.102;18.034;2023-03-03T10:10:18;1.00;99.90
20422;DHT22;10370;53.102;18.034;2023-03-03T10:16:29;1.00;99.90
20422;DHT22;10370;53.102;18.034;2023-03-03T10:22:15;1.00;99.90
20422;DHT22;10370;53.102;18.034;2023-03-03T10:34:02;1.00;99.90
20422;DHT22;10370;53.102;18.034;2023-03-03T10:39:54;1.20;99.90
20422;DHT22;10370;53.102;18.034;2023-03-03T10:45:38;1.20;99.90
20422;DHT22;10370;53.102;18.034;2023-03-03T10:56:54;1.20;99.90
20422;DHT22;10370;53.102;18.034;2023-03-03T11:08:33;1.20;99.90
20422;DHT22;10370;53.102;18.034;2023-03-03T11:14:11;1.30;99.90
20422;DHT22;10370;53.102;18.034;2023-03-03T11:25:26;1.40;99.90
20422;DHT22;10370;53.102;18.034;2023-03-03T11:37:03;1.50;99.90
20422;DHT22;10370;53.102;18.034;2023-03-03T11:43:06;1.60;99.90
20422;DHT22;10370;53.102;18.034;2023-03-03T11:48:45;1.60;99.90
20422;DHT22;10370;53.102;18.034;2023-03-03T12:05:56;1.80;99.90
20422;DHT22;10370;53.102;18.034;2023-03-03T12:11:28;1.80;99.90
20422;DHT22;10370;53.102;18.034;2023-03-03T12:17:11;1.80;99.90
20422;DHT22;10370;53.102;18.034;2023-03-03T12:28:37;1.90;99.90
20422;DHT22;10370;53.102;18.034;2023-03-03T12:34:09;2.00;99.90
20422;DHT22;10370;53.102;18.034;2023-03-03T12:45:34;2.20;99.90
20422;DHT22;10370;53.102;18.034;2023-03-03T13:02:47;2.30;99.90
20422;DHT22;10370;53.102;18.034;2023-03-03T13:08:36;2.40;99.90
20422;DHT22;10370;53.102;18.034;2023-03-03T13:19:54;2.50;99.90
20422;DHT22;10370;53.102;18.034;2023-03-03T13:25:23;2.70;99.90
20422;DHT22;10370;53.102;18.034;2023-03-03T13:30:57;2.60;99.90
20422;DHT22;10370;53.102;18.034;2023-03-03T13:36:33;2.80;99.90
20422;DHT22;10370;53.102;18.034;2023-03-03T13:42:18;2.70;99.90
20422;DHT22;10370;53.102;18.034;2023-03-03T14:05:12;2.90;99.90
20422;DHT22;10370;53.102;18.034;2023-03-03T14:23:00;2.90;99.90
20422;DHT22;10370;53.102;18.034;2023-03-03T14:28:27;2.90;99.90
20422;DHT22;10370;53.102;18.034;2023-03-03T14:40:21;2.80;99.90
20422;DHT22;10370;53.102;18.034;2023-03-03T14:45:47;2.80;99.90
20422;DHT22;10370;53.102;18.034;2023-03-03T14:51:29;2.80;99.90
20422;DHT22;10370;53.102;18.034;2023-03-03T14:57:09;2.90;99.90
20422;DHT22;10370;53.102;18.034;2023-03-03T15:02:42;2.90;99.90
20422;DHT22;10370;53.102;18.034;2023-03-03T15:08:09;2.90;99.90
20422;DHT22;10370;53.102;18.034;2023-03-03T15:13:34;2.90;99.90
20422;DHT22;10370;53.102;18.034;2023-03-03T15:24:50;2.80;99.90
20422;DHT22;10370;53.102;18.034;2023-03-03T15:30:20;2.80;99.90
20422;DHT22;10370;53.102;18.034;2023-03-03T15:36:03;2.70;99.90
20422;DHT22;10370;53.102;18.034;2023-03-03T15:41:43;2.70;99.90
20422;DHT22;10370;53.102;18.034;2023-03-03T15:47:45;2.70;99.90
20422;DHT22;10370;53.102;18.034;2023-03-03T15:53:41;2.70;99.90
20422;DHT22;10370;53.102;18.034;2023-03-03T16:21:56;2.20;99.90
20422;DHT22;10370;53.102;18.034;2023-03-03T16:27:42;2.10;99.90
20422;DHT22;10370;53.102;18.034;2023-03-03T16:33:19;1.90;99.90
20422;DHT22;10370;53.102;18.034;2023-03-03T16:38:44;1.80;99.90
20422;DHT22;10370;53.102;18.034;2023-03-03T16:44:39;1.70;99.90
20422;DHT22;10370;53.102;18.034;2023-03-03T17:02:03;1.40;99.90
20422;DHT22;10370;53.102;18.034;2023-03-03T17:14:20;1.30;99.90
20422;DHT22;10370;53.102;18.034;2023-03-03T17:25:33;1.20;99.90
20422;DHT22;10370;53.102;18.034;2023-03-03T17:42:30;1.10;99.90
20422;DHT22;10370;53.102;18.034;2023-03-03T17:54:01;1.10;99.90
20422;DHT22;10370;53.102;18.034;2023-03-03T18:22:06;1.10;99.90
20422;DHT22;10370;53.102;18.034;2023-03-03T18:27:36;1.20;99.90
20422;DHT22;10370;53.102;18.034;2023-03-03T18:33:10;1.30;99.90
20422;DHT22;10370;53.102;18.034;2023-03-03T18:38:37;1.40;99.90
20422;DHT22;10370;53.102;18.034;2023-03-03T18:44:32;1.50;99.90
20422;DHT22;10370;53.102;18.034;2023-03-03T18:55:28;1.70;99.90
20422;DHT22;10370;53.102;18.034;2023-03-03T19:12:03;1.70;99.90
20422;DHT22;10370;53.102;18.034;2023-03-03T19:22:51;1.80;99.90
20422;DHT22;10370;53.102;18.034;2023-03-03T19:33:54;1.90;99.90
20422;DHT22;10370;53.102;18.034;2023-03-03T19:45:03;1.90;99.90
20422;DHT22;10370;53.102;18.034;2023-03-03T19:56:22;1.90;99.90
20422;DHT22;10370;53.102;18.034;2023-03-03T20:08:25;1.90;99.90
20422;DHT22;10370;53.102;18.034;2023-03-03T20:13:59;2.00;99.90
20422;DHT22;10370;53.102;18.034;2023-03-03T20:19:44;2.00;99.90
20422;DHT22;10370;53.102;18.034;2023-03-03T20:42:55;2.00;99.90
20422;DHT22;10370;53.102;18.034;2023-03-03T21:06:04;1.90;99.90
20422;DHT22;10370;53.102;18.034;2023-03-03T21:22:46;1.80;99.90
20422;DHT22;10370;53.102;18.034;2023-03-03T21:33:49;1.90;99.90
20422;DHT22;10370;53.102;18.034;2023-03-03T21:44:52;1.90;99.90
20422;DHT22;10370;53.102;18.034;2023-03-03T21:50:17;1.80;99.90
20422;DHT22;10370;53.102;18.034;2023-03-03T21:55:45;1.90;99.90
20422;DHT22;10370;53.102;18.034;2023-03-03T22:01:12;1.90;99.90
20422;DHT22;10370;53.102;18.034;2023-03-03T22:06:35;1.90;99.90
20422;DHT22;10370;53.102;18.034;2023-03-03T22:12:10;1.90;99.90
20422;DHT22;10370;53.102;18.034;2023-03-03T22:17:38;1.90;99.90
20422;DHT22;10370;53.102;18.034;2023-03-03T22:23:02;1.90;99.90
20422;DHT22;10370;53.102;18.034;2023-03-03T22:28:25;1.90;99.90
20422;DHT22;10370;53.102;18.034;2023-03-03T22:34:13;1.90;99.90
20422;DHT22;10370;53.102;18.034;2023-03-03T22:40:01;1.90;99.90
20422;DHT22;10370;53.102;18.034;2023-03-03T22:45:26;1.90;99.90
20422;DHT22;10370;53.102;18.034;2023-03-03T22:50:57;1.90;99.90
20422;DHT22;10370;53.102;18.034;2023-03-03T22:56:22;1.90;99.90
20422;DHT22;10370;53.102;18.034;2023-03-03T23:01:53;1.90;99.90
20422;DHT22;10370;53.102;18.034;2023-03-03T23:07:18;2.00;99.90
20422;DHT22;10370;53.102;18.034;2023-03-03T23:12:41;2.00;99.90
20422;DHT22;10370;53.102;18.034;2023-03-03T23:18:07;2.00;99.90
20422;DHT22;10370;53.102;18.034;2023-03-03T23:23:32;2.10;99.90
20422;DHT22;10370;53.102;18.034;2023-03-03T23:28:56;2.10;99.90
20422;DHT22;10370;53.102;18.034;2023-03-03T23:34:23;2.10;99.90
20422;DHT22;10370;53.102;18.034;2023-03-03T23:39:57;2.10;99.90
20422;DHT22;10370;53.102;18.034;2023-03-03T23:45:25;2.20;99.90
20422;DHT22;10370;53.102;18.034;2023-03-03T23:50:50;2.20;99.90
20422;DHT22;10370;53.102;18.034;2023-03-03T23:56:15;2.20;99.90
